Time;durP1;ratioP1;P1;durP2;ratioP2;P2;SDS_P1;SDS_P2;PMS_P1;PMS_P2;Temp;Humidity;BMP_temperature;BMP_pressure;BME280_temperature;BME280_humidity;BME280_pressure;Samples;Min_cycle;Max_cycle;Signal;HPM_P1;HPM_P2
2023/03/09 00:01:54;;;;;;;;;;;;;;;5.79;100.00;97482.66;4973599;28;19926;-76
2023/03/09 00:04:20;;;;;;;;;;;;;;;5.77;100.00;97472.56;4969553;28;20008;-73
2023/03/09 00:06:45;;;;;;;;;;;;;;;5.80;100.00;97480.00;4980181;28;20277;-76
2023/03/09 00:09:12;;;;;;;;;;;;;;;5.74;100.00;97477.94;4972599;28;19914;-74
2023/03/09 00:11:39;;;;;;;;;;;;;;;5.76;100.00;97478.59;4965173;28;20332;-76
2023/03/09 00:14:04;;;;;;;;;;;;;;;5.79;100.00;97482.66;4971066;28;19976;-75
2023/03/09 00:16:30;;;;;;;;;;;;;;;5.72;100.00;97478.94;4965829;28;20377;-75
2023/03/09 00:18:59;;;;;;;;;;;;;;;5.70;100.00;97478.28;4977471;28;19921;-75
2023/03/09 00:21:34;;;;;;;;;;;;;;;5.77;100.00;97484.53;4965458;28;20437;-75
2023/03/09 00:24:00;;;;;;;;;;;;;;;5.76;100.00;97482.91;4971424;28;19914;-76
2023/03/09 00:26:25;;;;;;;;;;;;;;;5.91;100.00;97484.25;4973546;28;19914;-75
2023/03/09 00:28:50;;;;;;;;;;;;;;;5.80;100.00;97484.28;4973408;28;19996;-76
2023/03/09 00:31:15;;;;;;;;;;;;;;;5.71;100.00;97472.25;4953261;28;19933;-76
2023/03/09 00:33:40;;;;;;;;;;;;;;;5.76;100.00;97480.34;4978718;28;20400;-75
2023/03/09 00:36:06;;;;;;;;;;;;;;;5.74;100.00;97493.22;4971876;28;19918;-76
2023/03/09 00:38:31;;;;;;;;;;;;;;;5.78;100.00;97491.22;4973529;28;19914;-76
2023/03/09 00:40:56;;;;;;;;;;;;;;;5.74;100.00;97487.31;4969031;28;20358;-76
2023/03/09 00:43:21;;;;;;;;;;;;;;;5.72;100.00;97484.03;4969672;28;19944;-75
2023/03/09 00:45:46;;;;;;;;;;;;;;;5.79;100.00;97477.53;4970430;28;20012;-75
2023/03/09 00:48:12;;;;;;;;;;;;;;;5.84;100.00;97467.00;4955789;28;19961;-75
2023/03/09 00:50:37;;;;;;;;;;;;;;;5.86;100.00;97473.59;4950566;28;19927;-76
2023/03/09 00:53:03;;;;;;;;;;;;;;;5.90;100.00;97474.19;4976961;28;20020;-76
2023/03/09 00:55:28;;;;;;;;;;;;;;;5.85;100.00;97478.84;4971776;28;19996;-75
2023/03/09 00:57:54;;;;;;;;;;;;;;;5.89;100.00;97485.31;4970897;28;20409;-75
2023/03/09 01:00:19;;;;;;;;;;;;;;;5.98;100.00;97487.16;4963617;28;19922;-75
2023/03/09 01:02:44;;;;;;;;;;;;;;;5.91;100.00;97497.00;4985150;28;19918;-75
2023/03/09 01:05:10;;;;;;;;;;;;;;;5.89;100.00;97491.25;4981931;28;19930;-75
2023/03/09 01:07:35;;;;;;;;;;;;;;;5.88;100.00;97501.53;4971487;28;19914;-75
2023/03/09 01:10:00;;;;;;;;;;;;;;;6.06;100.00;97504.47;4963882;28;19941;-75
2023/03/09 01:12:26;;;;;;;;;;;;;;;6.42;100.00;97507.59;4971540;28;20362;-75
2023/03/09 01:14:56;;;;;;;;;;;;;;;6.77;100.00;97501.44;4971536;28;20051;-75
2023/03/09 01:17:21;;;;;;;;;;;;;;;7.06;100.00;97496.50;4971559;28;20378;-75
2023/03/09 01:19:46;;;;;;;;;;;;;;;7.24;100.00;97496.75;4971666;28;19976;-75
2023/03/09 01:22:11;;;;;;;;;;;;;;;7.39;100.00;97491.28;4977547;28;20361;-74
2023/03/09 01:24:36;;;;;;;;;;;;;;;7.46;100.00;97494.16;5000961;28;19914;-75
2023/03/09 01:27:02;;;;;;;;;;;;;;;7.43;100.00;97490.91;4988153;28;19932;-74
2023/03/09 01:29:27;;;;;;;;;;;;;;;7.50;100.00;97492.97;4971322;28;20279;-74
2023/03/09 01:31:52;;;;;;;;;;;;;;;7.54;100.00;97494.31;4976484;28;19925;-75
2023/03/09 01:34:18;;;;;;;;;;;;;;;7.56;100.00;97502.69;4973261;28;19914;-74
2023/03/09 01:36:43;;;;;;;;;;;;;;;7.51;100.00;97535.53;4972934;28;19954;-74
2023/03/09 01:39:09;;;;;;;;;;;;;;;7.48;100.00;97531.47;4972868;28;19918;-74
2023/03/09 01:41:34;;;;;;;;;;;;;;;7.38;100.00;97546.75;4963738;28;20428;-74
2023/03/09 01:43:59;;;;;;;;;;;;;;;7.42;100.00;97539.66;4973515;28;20008;-75
2023/03/09 01:46:25;;;;;;;;;;;;;;;7.36;100.00;97535.84;4971911;28;19920;-74
2023/03/09 01:48:53;;;;;;;;;;;;;;;7.30;100.00;97536.34;4969289;28;20063;-74
2023/03/09 01:51:19;;;;;;;;;;;;;;;7.26;100.00;97532.44;4963758;28;19917;-74
2023/03/09 01:53:45;;;;;;;;;;;;;;;7.27;100.00;97526.38;4970716;28;20005;-74
2023/03/09 01:56:11;;;;;;;;;;;;;;;7.25;100.00;97539.28;4971017;28;19915;-74
2023/03/09 01:58:37;;;;;;;;;;;;;;;7.25;100.00;97548.69;4971310;28;20361;-74
2023/03/09 02:01:02;;;;;;;;;;;;;;;7.21;100.00;97545.56;4969935;28;19928;-74
2023/03/09 02:03:34;;;;;;;;;;;;;;;7.11;100.00;97547.28;4977735;28;19917;-74
2023/03/09 02:06:19;;;;;;;;;;;;;;;7.12;100.00;97559.13;4971435;28;19925;-75
2023/03/09 02:08:50;;;;;;;;;;;;;;;7.13;100.00;97552.25;4966944;28;19960;-75
2023/03/09 02:11:16;;;;;;;;;;;;;;;7.07;100.00;97566.31;4962454;28;19922;-74
2023/03/09 02:13:42;;;;;;;;;;;;;;;7.02;100.00;97569.28;4977701;28;19918;-74
2023/03/09 02:16:07;;;;;;;;;;;;;;;6.99;100.00;97566.94;4972173;28;19922;-74
2023/03/09 02:18:33;;;;;;;;;;;;;;;6.97;100.00;97563.72;4972807;28;19921;-75
2023/03/09 02:21:01;;;;;;;;;;;;;;;7.00;100.00;97571.13;4972018;28;20007;-75
2023/03/09 02:23:29;;;;;;;;;;;;;;;7.00;100.00;97586.47;4988085;28;19924;-75
2023/03/09 02:25:59;;;;;;;;;;;;;;;7.04;100.00;97585.28;4973045;28;19953;-75
2023/03/09 02:28:24;;;;;;;;;;;;;;;7.04;100.00;97576.81;4975607;28;20325;-75
2023/03/09 02:30:50;;;;;;;;;;;;;;;7.05;100.00;97566.47;4971569;28;19921;-75
2023/03/09 02:33:25;;;;;;;;;;;;;;;7.06;100.00;97591.09;4984547;28;20009;-74
2023/03/09 02:35:51;;;;;;;;;;;;;;;7.04;100.00;97599.81;4973744;28;19918;-75
2023/03/09 02:38:16;;;;;;;;;;;;;;;7.03;100.00;97587.97;4975663;28;20003;-75
2023/03/09 02:40:42;;;;;;;;;;;;;;;7.08;100.00;97598.63;4966714;28;19957;-75
2023/03/09 02:43:07;;;;;;;;;;;;;;;7.09;100.00;97588.31;4985003;28;20289;-75
2023/03/09 02:45:32;;;;;;;;;;;;;;;7.06;100.00;97595.41;4974564;28;20004;-75
2023/03/09 02:47:58;;;;;;;;;;;;;;;6.99;100.00;97602.75;4974784;28;20044;-75
2023/03/09 02:50:23;;;;;;;;;;;;;;;7.02;100.00;97604.22;4967172;28;19976;-75
2023/03/09 02:52:48;;;;;;;;;;;;;;;7.05;100.00;97609.13;4987043;28;19914;-75
2023/03/09 02:55:13;;;;;;;;;;;;;;;7.01;100.00;97617.94;4974786;28;20294;-75
2023/03/09 02:57:40;;;;;;;;;;;;;;;7.01;100.00;97620.50;4973941;28;19925;-75
2023/03/09 03:00:09;;;;;;;;;;;;;;;7.07;100.00;97617.44;4965568;28;20318;-74
2023/03/09 03:02:34;;;;;;;;;;;;;;;7.06;100.00;97621.78;4987894;28;19914;-75
2023/03/09 03:04:59;;;;;;;;;;;;;;;7.02;100.00;97629.78;4973357;28;19925;-74
2023/03/09 03:07:25;;;;;;;;;;;;;;;7.00;100.00;97631.69;4974584;28;19925;-75
2023/03/09 03:09:51;;;;;;;;;;;;;;;7.01;100.00;97640.94;4973037;28;19967;-76
2023/03/09 03:12:16;;;;;;;;;;;;;;;7.02;100.00;97640.03;4964623;28;19948;-75
2023/03/09 03:14:41;;;;;;;;;;;;;;;6.99;100.00;97653.84;4975153;28;19914;-75
2023/03/09 03:17:06;;;;;;;;;;;;;;;7.04;100.00;97661.97;4974964;28;19918;-75
2023/03/09 03:19:32;;;;;;;;;;;;;;;7.08;100.00;97659.97;4974987;28;19914;-75
2023/03/09 03:21:57;;;;;;;;;;;;;;;7.07;100.00;97674.53;4965792;28;20052;-76
2023/03/09 03:24:23;;;;;;;;;;;;;;;7.14;100.00;97676.59;4974992;28;19922;-76
2023/03/09 03:26:48;;;;;;;;;;;;;;;7.15;100.00;97663.69;4974758;28;19951;-76
2023/03/09 03:29:13;;;;;;;;;;;;;;;7.24;100.00;97660.41;4973913;28;20429;-76
2023/03/09 03:31:38;;;;;;;;;;;;;;;7.26;100.00;97680.72;4976720;28;19924;-76
2023/03/09 03:34:03;;;;;;;;;;;;;;;7.25;100.00;97687.56;4976813;28;19914;-76
2023/03/09 03:36:28;;;;;;;;;;;;;;;7.32;100.00;97699.88;4973328;28;20381;-77
2023/03/09 03:38:54;;;;;;;;;;;;;;;7.31;100.00;97709.31;4972931;28;19945;-77
2023/03/09 03:41:19;;;;;;;;;;;;;;;7.29;100.00;97710.38;4964747;28;19929;-77
2023/03/09 03:43:44;;;;;;;;;;;;;;;7.24;100.00;97719.22;4962408;28;19922;-78
2023/03/09 03:46:09;;;;;;;;;;;;;;;7.15;100.00;97719.13;4974094;28;20013;-78
2023/03/09 03:48:34;;;;;;;;;;;;;;;7.22;100.00;97727.94;4972356;28;20329;-78
2023/03/09 03:51:00;;;;;;;;;;;;;;;7.24;100.00;97731.19;4966202;28;19922;-79
2023/03/09 03:53:25;;;;;;;;;;;;;;;7.28;100.00;97737.66;4972367;28;19914;-78
2023/03/09 03:55:50;;;;;;;;;;;;;;;7.38;100.00;97747.97;4973656;28;20002;-78
2023/03/09 03:58:16;;;;;;;;;;;;;;;7.40;100.00;97751.25;4973999;28;19918;-78
2023/03/09 04:00:41;;;;;;;;;;;;;;;7.47;100.00;97757.50;4956309;28;20353;-79
2023/03/09 04:03:06;;;;;;;;;;;;;;;7.46;100.00;97758.44;4991170;28;19918;-78
2023/03/09 04:05:31;;;;;;;;;;;;;;;7.50;100.00;97759.00;4983206;28;20370;-78
2023/03/09 04:07:57;;;;;;;;;;;;;;;7.50;100.00;97754.69;4972202;28;19947;-79
2023/03/09 04:10:23;;;;;;;;;;;;;;;7.53;100.00;97761.28;4965082;28;19925;-79
2023/03/09 04:12:48;;;;;;;;;;;;;;;7.55;100.00;97767.13;4985143;28;19914;-79
2023/03/09 04:15:14;;;;;;;;;;;;;;;7.55;100.00;97773.06;4964076;28;19914;-79
2023/03/09 04:17:39;;;;;;;;;;;;;;;7.57;100.00;97783.97;4982175;28;19925;-79
2023/03/09 04:20:04;;;;;;;;;;;;;;;7.64;100.00;97792.00;4963918;28;20087;-79
2023/03/09 04:22:30;;;;;;;;;;;;;;;7.69;100.00;97802.66;4987985;28;19965;-79
2023/03/09 04:24:55;;;;;;;;;;;;;;;7.71;100.00;97799.97;4973458;28;20282;-78
2023/03/09 04:27:21;;;;;;;;;;;;;;;7.77;100.00;97811.47;4973351;28;19937;-79
2023/03/09 04:29:46;;;;;;;;;;;;;;;7.88;100.00;97817.34;4973756;28;19968;-79
2023/03/09 04:32:11;;;;;;;;;;;;;;;7.92;100.00;97820.47;4958195;28;19917;-80
2023/03/09 04:34:37;;;;;;;;;;;;;;;7.96;100.00;97823.63;4973502;28;19914;-79
2023/03/09 04:37:02;;;;;;;;;;;;;;;7.99;100.00;97831.03;4971733;28;19969;-79
2023/03/09 04:39:27;;;;;;;;;;;;;;;8.02;100.00;97836.72;4973327;28;20385;-78
2023/03/09 04:41:52;;;;;;;;;;;;;;;8.06;100.00;97838.13;4990314;28;19918;-79
2023/03/09 04:44:17;;;;;;;;;;;;;;;8.00;100.00;97842.91;4976055;28;20285;-79
2023/03/09 04:46:43;;;;;;;;;;;;;;;8.05;100.00;97849.28;4973327;28;20005;-79
2023/03/09 04:49:08;;;;;;;;;;;;;;;8.06;100.00;97850.09;4971687;28;19964;-77
2023/03/09 04:51:33;;;;;;;;;;;;;;;8.13;100.00;97860.66;4965359;28;19924;-77
2023/03/09 04:53:58;;;;;;;;;;;;;;;8.09;100.00;97860.09;4979931;28;20354;-77
2023/03/09 04:56:23;;;;;;;;;;;;;;;8.11;100.00;97862.53;4972579;28;19925;-76
2023/03/09 04:58:49;;;;;;;;;;;;;;;8.11;100.00;97872.78;4973142;28;19934;-77
2023/03/09 05:01:14;;;;;;;;;;;;;;;8.17;100.00;97873.09;4971843;28;20640;-78
2023/03/09 05:03:39;;;;;;;;;;;;;;;8.19;100.00;97886.59;4990100;28;19917;-78
2023/03/09 05:06:04;;;;;;;;;;;;;;;8.24;100.00;97886.22;4978599;28;19925;-78
2023/03/09 05:08:30;;;;;;;;;;;;;;;8.27;100.00;97892.84;4973071;28;19922;-79
2023/03/09 05:10:55;;;;;;;;;;;;;;;8.29;100.00;97893.56;4969860;28;19922;-77
2023/03/09 05:13:20;;;;;;;;;;;;;;;8.27;100.00;97895.41;4977520;28;20002;-77
2023/03/09 05:15:45;;;;;;;;;;;;;;;8.20;100.00;97907.91;4973443;28;20263;-79
2023/03/09 05:18:11;;;;;;;;;;;;;;;8.25;100.00;97905.78;4971192;28;19962;-80
2023/03/09 05:20:37;;;;;;;;;;;;;;;8.27;100.00;97910.78;4967372;28;19971;-78
2023/03/09 05:23:02;;;;;;;;;;;;;;;8.27;100.00;97921.81;4994106;28;19914;-79
2023/03/09 05:25:28;;;;;;;;;;;;;;;8.17;100.00;97931.19;4973029;28;19977;-79
2023/03/09 05:27:53;;;;;;;;;;;;;;;8.14;100.00;97927.13;4972573;28;19920;-80
2023/03/09 05:30:19;;;;;;;;;;;;;;;8.15;100.00;97940.72;4964780;28;19968;-79
2023/03/09 05:32:44;;;;;;;;;;;;;;;8.13;100.00;97934.94;4998289;28;20397;-80
2023/03/09 05:35:09;;;;;;;;;;;;;;;8.13;100.00;97934.94;4971693;28;19917;-77
2023/03/09 05:37:35;;;;;;;;;;;;;;;8.16;100.00;97943.19;4972504;28;19918;-80
2023/03/09 05:40:00;;;;;;;;;;;;;;;8.22;100.00;97936.75;4972282;28;20369;-78
2023/03/09 05:42:25;;;;;;;;;;;;;;;8.17;100.00;97944.00;4992775;28;19922;-78
2023/03/09 05:44:50;;;;;;;;;;;;;;;8.16;100.00;97952.59;4972961;28;19918;-77
2023/03/09 05:47:15;;;;;;;;;;;;;;;8.14;100.00;97951.94;4972453;28;19921;-77
2023/03/09 05:49:41;;;;;;;;;;;;;;;8.16;100.00;97961.13;4972856;28;19914;-76
2023/03/09 05:52:06;;;;;;;;;;;;;;;8.25;100.00;97969.81;4977321;28;19977;-77
2023/03/09 05:54:32;;;;;;;;;;;;;;;8.28;100.00;97966.19;4971118;28;20274;-77
2023/03/09 05:56:57;;;;;;;;;;;;;;;8.24;100.00;97981.78;4971110;28;19914;-76
2023/03/09 05:59:22;;;;;;;;;;;;;;;8.31;100.00;97979.56;4973242;28;19924;-76
2023/03/09 06:01:47;;;;;;;;;;;;;;;8.35;100.00;97978.41;4972783;28;20009;-76
2023/03/09 06:04:13;;;;;;;;;;;;;;;8.29;100.00;97980.63;4985746;28;19921;-76
2023/03/09 06:06:38;;;;;;;;;;;;;;;8.26;100.00;97988.56;4975905;28;19921;-75
2023/03/09 06:09:03;;;;;;;;;;;;;;;8.28;100.00;97992.63;4974663;28;19921;-75
2023/03/09 06:11:28;;;;;;;;;;;;;;;8.23;100.00;97990.41;4972257;28;19921;-75
2023/03/09 06:13:54;;;;;;;;;;;;;;;8.24;100.00;97991.25;4984799;28;19921;-75
2023/03/09 06:16:20;;;;;;;;;;;;;;;8.31;100.00;98000.06;4974340;28;20374;-75
2023/03/09 06:18:45;;;;;;;;;;;;;;;8.26;100.00;98004.75;4975921;28;19971;-75
2023/03/09 06:21:11;;;;;;;;;;;;;;;8.28;100.00;98002.06;4967440;28;19926;-75
2023/03/09 06:23:36;;;;;;;;;;;;;;;8.29;100.00;97999.38;4981242;28;20286;-75
2023/03/09 06:26:03;;;;;;;;;;;;;;;8.24;100.00;98015.09;4974848;28;19918;-74
2023/03/09 06:28:28;;;;;;;;;;;;;;;8.28;100.00;98010.53;4973993;28;19914;-74
2023/03/09 06:30:53;;;;;;;;;;;;;;;8.34;100.00;98019.50;4966977;28;20032;-73
2023/03/09 06:33:18;;;;;;;;;;;;;;;8.40;100.00;98014.69;4984414;28;19914;-74
2023/03/09 06:35:43;;;;;;;;;;;;;;;8.34;100.00;98024.63;4974052;28;20341;-74
2023/03/09 06:38:09;;;;;;;;;;;;;;;8.18;100.00;98030.94;4975113;28;19964;-74
2023/03/09 06:40:34;;;;;;;;;;;;;;;8.19;100.00;98027.44;4966089;28;19925;-74
2023/03/09 06:43:00;;;;;;;;;;;;;;;8.20;100.00;98026.53;4973331;28;19986;-74
2023/03/09 06:45:25;;;;;;;;;;;;;;;8.24;100.00;98030.47;4973401;28;19921;-75
2023/03/09 06:47:54;;;;;;;;;;;;;;;8.26;100.00;98038.03;4968988;28;19915;-77
2023/03/09 06:50:19;;;;;;;;;;;;;;;8.29;100.00;98039.56;4952902;28;19926;-76
2023/03/09 06:52:45;;;;;;;;;;;;;;;8.31;100.00;98058.16;4973392;28;20013;-74
2023/03/09 06:55:10;;;;;;;;;;;;;;;8.26;100.00;98063.66;4973878;28;20385;-74
2023/03/09 06:57:36;;;;;;;;;;;;;;;8.27;100.00;98062.69;4974294;28;19918;-74
2023/03/09 07:00:01;;;;;;;;;;;;;;;8.31;100.00;98065.84;4971980;28;19969;-72
2023/03/09 07:02:27;;;;;;;;;;;;;;;8.36;100.00;98073.97;4983342;28;19921;-75
2023/03/09 07:04:52;;;;;;;;;;;;;;;8.42;100.00;98077.81;4976514;28;19920;-75
2023/03/09 07:07:18;;;;;;;;;;;;;;;8.54;100.00;98077.69;4973642;28;19914;-75
2023/03/09 07:09:43;;;;;;;;;;;;;;;8.64;100.00;98088.03;4974804;28;19968;-75
2023/03/09 07:12:09;;;;;;;;;;;;;;;8.68;100.00;98094.56;4964329;28;19928;-75
2023/03/09 07:14:34;;;;;;;;;;;;;;;8.65;100.00;98099.13;4973742;28;19925;-74
2023/03/09 07:16:59;;;;;;;;;;;;;;;8.61;100.00;98106.22;4975370;28;19929;-75
2023/03/09 07:19:25;;;;;;;;;;;;;;;8.56;100.00;98109.16;4973523;28;19984;-75
2023/03/09 07:21:50;;;;;;;;;;;;;;;8.54;100.00;98121.25;4968909;28;19987;-74
2023/03/09 07:24:16;;;;;;;;;;;;;;;8.40;100.00;98113.81;4972335;28;20212;-76
2023/03/09 07:26:42;;;;;;;;;;;;;;;8.50;100.00;98127.56;4974772;28;20324;-77
2023/03/09 07:29:07;;;;;;;;;;;;;;;8.54;100.00;98130.72;4973620;28;19922;-74
2023/03/09 07:31:32;;;;;;;;;;;;;;;8.59;100.00;98133.72;4960341;28;19922;-75
2023/03/09 07:33:57;;;;;;;;;;;;;;;8.71;100.00;98142.22;4964051;28;19914;-75
2023/03/09 07:36:23;;;;;;;;;;;;;;;8.75;100.00;98141.03;4958787;28;19957;-75
2023/03/09 07:38:49;;;;;;;;;;;;;;;8.80;100.00;98145.81;4966440;28;19938;-75
2023/03/09 07:41:14;;;;;;;;;;;;;;;8.81;100.00;98147.44;4963850;28;20012;-77
2023/03/09 07:43:43;;;;;;;;;;;;;;;8.96;100.00;98150.53;4973087;28;20718;-75
2023/03/09 07:46:13;;;;;;;;;;;;;;;9.02;100.00;98153.44;4972654;28;19952;-74
2023/03/09 07:48:39;;;;;;;;;;;;;;;9.15;100.00;98150.72;4974533;28;20330;-74
2023/03/09 07:51:04;;;;;;;;;;;;;;;9.19;100.00;98159.78;4971891;28;20017;-75
2023/03/09 07:53:30;;;;;;;;;;;;;;;9.25;100.00;98163.59;4972945;28;19926;-74
2023/03/09 07:55:56;;;;;;;;;;;;;;;9.28;100.00;98165.09;4973231;28;20297;-75
2023/03/09 07:58:21;;;;;;;;;;;;;;;9.45;100.00;98166.31;4972990;28;19962;-74
2023/03/09 08:00:46;;;;;;;;;;;;;;;9.44;100.00;98175.78;4949779;28;19932;-74
2023/03/09 08:03:11;;;;;;;;;;;;;;;9.51;100.00;98168.38;4963851;28;20387;-74
2023/03/09 08:05:39;;;;;;;;;;;;;;;9.65;100.00;98168.09;4963480;28;19925;-75
2023/03/09 08:08:04;;;;;;;;;;;;;;;9.78;100.00;98172.22;4954614;28;20393;-74
2023/03/09 08:10:29;;;;;;;;;;;;;;;9.83;100.00;98176.03;4951930;28;19918;-71
2023/03/09 08:12:54;;;;;;;;;;;;;;;10.04;100.00;98171.81;4969716;28;20247;-72
2023/03/09 08:15:22;;;;;;;;;;;;;;;10.25;100.00;98179.50;4951519;28;19925;-73
2023/03/09 08:17:47;;;;;;;;;;;;;;;10.25;100.00;98177.72;4983408;28;19997;-74
2023/03/09 08:20:13;;;;;;;;;;;;;;;10.33;100.00;98183.03;4974936;28;20008;-75
2023/03/09 08:22:38;;;;;;;;;;;;;;;10.41;100.00;98187.56;4959603;28;19922;-77
2023/03/09 08:25:04;;;;;;;;;;;;;;;10.43;100.00;98183.13;4954192;29;20397;-77
2023/03/09 08:27:30;;;;;;;;;;;;;;;10.31;100.00;98184.91;4961315;28;19989;-76
2023/03/09 08:29:55;;;;;;;;;;;;;;;10.24;100.00;98193.28;4953398;28;20374;-75
2023/03/09 08:32:22;;;;;;;;;;;;;;;10.29;100.00;98191.13;4939064;28;19933;-76
2023/03/09 08:34:48;;;;;;;;;;;;;;;10.37;100.00;98199.06;4981081;28;19965;-75
2023/03/09 08:37:13;;;;;;;;;;;;;;;10.28;100.00;98204.91;4975621;28;19914;-78
2023/03/09 08:39:38;;;;;;;;;;;;;;;10.28;100.00;98203.19;4972682;28;19969;-77
2023/03/09 08:42:03;;;;;;;;;;;;;;;10.43;100.00;98213.97;4993628;28;19929;-78
2023/03/09 08:44:28;;;;;;;;;;;;;;;10.33;100.00;98216.44;4972264;28;19914;-77
2023/03/09 08:46:55;;;;;;;;;;;;;;;10.54;100.00;98217.38;4970663;28;19918;-78
2023/03/09 08:49:20;;;;;;;;;;;;;;;10.59;100.00;98217.78;4973243;28;20040;-79
2023/03/09 08:51:45;;;;;;;;;;;;;;;10.60;100.00;98229.72;4978889;28;20387;-78
2023/03/09 08:54:10;;;;;;;;;;;;;;;10.74;100.00;98239.66;4991751;28;19922;-77
2023/03/09 08:56:35;;;;;;;;;;;;;;;10.63;100.00;98248.25;4973926;28;19976;-76
2023/03/09 08:59:01;;;;;;;;;;;;;;;10.31;100.00;98246.59;4973543;28;19914;-78
2023/03/09 09:01:26;;;;;;;;;;;;;;;10.28;100.00;98246.03;4975608;28;19943;-77
2023/03/09 09:03:51;;;;;;;;;;;;;;;10.45;100.00;98244.66;4980297;28;19913;-78
2023/03/09 09:06:16;;;;;;;;;;;;;;;10.60;100.00;98251.06;4971177;28;19934;-79
2023/03/09 09:08:42;;;;;;;;;;;;;;;10.54;100.00;98259.31;4972366;28;19918;-77
2023/03/09 09:11:12;;;;;;;;;;;;;;;10.39;100.00;98260.59;4969329;28;19929;-79
2023/03/09 09:13:37;;;;;;;;;;;;;;;10.64;100.00;98259.34;4959903;28;19973;-78
2023/03/09 09:16:05;;;;;;;;;;;;;;;10.72;100.00;98263.88;4954048;28;19918;-76
2023/03/09 09:18:30;;;;;;;;;;;;;;;10.76;100.00;98267.78;4955530;28;19949;-77
2023/03/09 09:20:55;;;;;;;;;;;;;;;10.87;100.00;98270.25;4959704;28;20065;-74
2023/03/09 09:23:21;;;;;;;;;;;;;;;10.97;100.00;98280.59;4959149;28;20374;-78
2023/03/09 09:25:53;;;;;;;;;;;;;;;11.09;100.00;98271.81;4956393;28;19920;-77
2023/03/09 09:28:18;;;;;;;;;;;;;;;11.35;100.00;98278.22;4966812;28;19918;-77
2023/03/09 09:30:43;;;;;;;;;;;;;;;11.59;100.00;98291.53;4958382;28;19925;-78
2023/03/09 09:33:11;;;;;;;;;;;;;;;11.50;100.00;98281.22;4981351;28;19921;-77
2023/03/09 09:35:36;;;;;;;;;;;;;;;11.59;100.00;98288.97;4955117;28;19922;-77
2023/03/09 09:38:02;;;;;;;;;;;;;;;11.58;100.00;98289.09;4975974;28;20403;-77
2023/03/09 09:40:27;;;;;;;;;;;;;;;11.51;100.00;98300.88;4968632;28;19925;-77
2023/03/09 09:42:54;;;;;;;;;;;;;;;11.57;100.00;98300.34;4991950;28;19921;-77
2023/03/09 09:47:05;;;;;;;4.37;1.50;;;;;;;11.88;100.00;98306.19;5129800;27;20333;-76
2023/03/09 09:49:40;;;;;;;4.27;1.83;;;;;;;12.20;100.00;98305.09;5127373;28;20190;-76
2023/03/09 09:52:26;;;;;;;5.30;1.63;;;;;;;11.99;100.00;98296.72;5066359;28;20218;-78
2023/03/09 09:55:03;;;;;;;9.10;2.10;;;;;;;12.41;100.00;98301.53;5083019;28;20181;-78
2023/03/09 09:57:39;;;;;;;4.93;1.73;;;;;;;12.92;100.00;98299.44;5075499;28;20169;-78
2023/03/09 10:00:12;;;;;;;5.93;1.50;;;;;;;14.62;100.00;98293.50;5059884;28;20203;-78
2023/03/09 10:02:57;;;;;;;8.93;2.50;;;;;;;15.21;100.00;98304.91;5082675;28;20185;-78
2023/03/09 10:05:41;;;;;;;4.43;1.70;;;;;;;14.38;100.00;98312.28;5068815;28;20362;-77
2023/03/09 10:08:35;;;;;;;6.73;1.57;;;;;;;14.14;100.00;98306.00;5067969;28;20181;-79
2023/03/09 10:11:26;;;;;;;6.47;2.03;;;;;;;14.20;100.00;98314.91;5060983;28;20227;-77
2023/03/09 10:14:00;;;;;;;4.33;1.83;;;;;;;14.49;100.00;98312.03;5066653;28;20334;-75
2023/03/09 10:16:30;;;;;;;5.60;1.77;;;;;;;15.28;100.00;98316.28;5063557;28;20188;-76
2023/03/09 10:18:59;;;;;;;6.53;2.17;;;;;;;16.17;100.00;98313.97;5059152;28;20271;-78
2023/03/09 10:21:34;;;;;;;5.30;1.90;;;;;;;18.01;98.37;98312.06;5071223;28;20233;-76
2023/03/09 10:24:26;;;;;;;4.87;1.77;;;;;;;18.16;91.81;98313.88;5075168;28;20233;-77
2023/03/09 10:27:06;;;;;;;4.73;2.03;;;;;;;16.64;99.62;98342.78;5067899;28;20274;-78
2023/03/09 10:29:47;;;;;;;6.97;2.20;;;;;;;16.05;100.00;98339.44;5066541;28;20242;-80
2023/03/09 10:32:34;;;;;;;5.37;1.97;;;;;;;15.40;100.00;98343.50;5075598;28;20666;-78
2023/03/09 10:35:18;;;;;;;6.53;2.20;;;;;;;14.88;100.00;98348.81;5069035;28;20366;-79
2023/03/09 10:37:46;;;;;;;8.70;1.93;;;;;;;14.61;100.00;98348.00;5088270;28;20177;-78
2023/03/09 10:40:19;;;;;;;5.53;2.23;;;;;;;14.36;100.00;98355.59;5093388;28;20265;-79
2023/03/09 10:42:44;;;;;;;5.77;1.77;;;;;;;13.71;100.00;98354.09;5107459;28;20635;-78
2023/03/09 10:45:22;;;;;;;5.87;2.00;;;;;;;13.43;100.00;98366.22;5088221;28;20240;-77
2023/03/09 10:47:47;;;;;;;11.60;2.40;;;;;;;13.71;100.00;98372.16;5086938;28;20250;-80
2023/03/09 10:50:14;;;;;;;7.57;2.10;;;;;;;13.93;100.00;98373.53;5079818;27;20210;-81
2023/03/09 10:52:40;;;;;;;5.50;2.07;;;;;;;13.95;100.00;98381.13;5117192;28;20176;-81
2023/03/09 10:55:27;;;;;;;4.80;2.03;;;;;;;13.64;100.00;98391.78;5088797;28;20206;-79
2023/03/09 10:57:58;;;;;;;6.20;1.67;;;;;;;13.36;100.00;98384.84;5078109;28;20217;-79
2023/03/09 11:00:25;;;;;;;3.53;1.33;;;;;;;13.31;100.00;98397.38;5098893;28;20659;-78
2023/03/09 11:02:56;;;;;;;8.00;1.70;;;;;;;13.23;100.00;98392.09;5097215;28;20188;-78
2023/03/09 11:05:27;;;;;;;5.13;1.73;;;;;;;13.14;100.00;98400.72;5073246;28;20261;-78
2023/03/09 11:07:58;;;;;;;4.80;1.47;;;;;;;12.60;100.00;98414.13;5072926;28;20203;-79
2023/03/09 11:10:29;;;;;;;4.47;1.40;;;;;;;12.61;100.00;98417.56;5068969;28;20231;-81
2023/03/09 11:12:56;;;;;;;7.57;1.63;;;;;;;12.85;100.00;98419.66;5086182;28;20204;-79
2023/03/09 11:15:32;;;;;;;4.10;1.67;;;;;;;13.14;100.00;98413.63;5073615;28;20189;-78
2023/03/09 11:17:59;;;;;;;6.17;1.70;;;;;;;13.14;100.00;98413.63;5072854;28;20184;-78
2023/03/09 11:20:31;;;;;;;4.30;1.23;;;;;;;13.34;100.00;98409.19;5057892;28;20354;-79
2023/03/09 11:23:13;;;;;;;4.90;1.67;;;;;;;13.56;100.00;98408.81;5084123;28;20218;-79
2023/03/09 11:25:48;;;;;;;4.50;1.70;;;;;;;13.80;100.00;98428.13;5085806;28;20288;-79
2023/03/09 11:28:50;;;;;;;5.30;1.47;;;;;;;13.96;100.00;98424.09;5082395;28;20588;-78
2023/03/09 11:31:19;;;;;;;3.57;1.60;;;;;;;14.09;100.00;98418.56;5070633;28;20262;-78
2023/03/09 11:33:50;;;;;;;4.27;1.70;;;;;;;13.79;100.00;98420.53;5078335;28;20181;-78
2023/03/09 11:36:20;;;;;;;2.23;1.20;;;;;;;13.63;100.00;98428.91;5072240;28;20177;-78
2023/03/09 11:38:46;;;;;;;2.23;1.17;;;;;;;13.74;100.00;98428.72;5071666;28;20314;-77
2023/03/09 11:41:18;;;;;;;3.73;1.03;;;;;;;13.68;100.00;98429.28;5074918;28;20227;-78
2023/03/09 11:43:48;;;;;;;3.03;1.10;;;;;;;13.81;100.00;98431.56;5078463;28;20288;-78
2023/03/09 11:46:15;;;;;;;5.57;1.50;;;;;;;13.90;100.00;98430.66;5072048;28;20228;-74
2023/03/09 11:48:46;;;;;;;3.27;1.23;;;;;;;13.78;100.00;98424.91;5071898;28;20200;-68
2023/03/09 11:51:40;;;;;;;3.30;1.33;;;;;;;13.72;100.00;98433.22;5074583;28;20235;-76
2023/03/09 11:57:27;;;;;;;6.17;2.60;;;;;;;13.89;100.00;98423.88;5069728;28;20180;-79
2023/03/09 11:59:59;;;;;;;5.30;1.90;;;;;;;13.58;100.00;98420.78;5068965;28;20552;-77
2023/03/09 12:02:38;;;;;;;5.77;1.60;;;;;;;13.50;100.00;98426.69;5038917;28;20234;-78
2023/03/09 12:05:11;;;;;;;3.30;1.57;;;;;;;13.48;100.00;98433.75;5049705;28;20200;-79
2023/03/09 12:08:03;;;;;;;5.33;1.90;;;;;;;13.27;100.00;98426.19;5051486;28;20188;-80
2023/03/09 12:10:39;;;;;;;4.53;1.77;;;;;;;13.13;100.00;98435.22;5043424;28;20227;-79
2023/03/09 12:13:18;;;;;;;5.77;2.07;;;;;;;13.23;100.00;98428.25;5067075;28;20187;-80
2023/03/09 12:15:50;;;;;;;3.33;1.53;;;;;;;13.37;100.00;98425.25;5051494;28;20221;-79
2023/03/09 12:18:26;;;;;;;3.57;1.70;;;;;;;13.56;100.00;98418.34;5048877;28;20276;-80
2023/03/09 12:20:58;;;;;;;5.03;1.80;;;;;;;13.96;100.00;98424.09;5058482;28;20669;-79
2023/03/09 12:23:35;;;;;;;4.30;1.30;;;;;;;14.58;100.00;98420.75;5090493;28;20195;-79
2023/03/09 12:26:29;;;;;;;7.83;1.73;;;;;;;15.09;100.00;98421.75;5072686;28;20196;-79
2023/03/09 12:29:03;;;;;;;4.10;1.93;;;;;;;14.88;100.00;98416.13;5059106;28;20639;-79
2023/03/09 12:31:35;;;;;;;6.37;2.27;;;;;;;14.99;100.00;98410.69;5039614;28;20719;-81
2023/03/09 12:34:02;;;;;;;5.13;1.87;;;;;;;14.59;100.00;98418.00;5046757;28;20174;-77